sensor_id;sensor_type;location;lat;lon;timestamp;temperature;humidity
65836;SHT30;52595;51.608;7.216;2023-07-02T00:01:07;17.21;91.05
65836;SHT30;52595;51.608;7.216;2023-07-02T00:03:32;17.17;91.06
65836;SHT30;52595;51.608;7.216;2023-07-02T00:05:57;17.17;90.94
65836;SHT30;52595;51.608;7.216;2023-07-02T00:08:23;17.19;90.85
65836;SHT30;52595;51.608;7.216;2023-07-02T00:10:48;17.15;91.15
65836;SHT30;52595;51.608;7.216;2023-07-02T00:13:14;17.19;90.75
65836;SHT30;52595;51.608;7.216;2023-07-02T00:15:41;17.15;90.93
65836;SHT30;52595;51.608;7.216;2023-07-02T00:18:06;17.14;90.93
65836;SHT30;52595;51.608;7.216;2023-07-02T00:20:32;17.17;90.71
65836;SHT30;52595;51.608;7.216;2023-07-02T00:23:06;17.12;90.97
65836;SHT30;52595;51.608;7.216;2023-07-02T00:25:34;17.17;90.72
65836;SHT30;52595;51.608;7.216;2023-07-02T00:27:59;17.12;90.81
65836;SHT30;52595;51.608;7.216;2023-07-02T00:30:25;17.15;90.91
65836;SHT30;52595;51.608;7.216;2023-07-02T00:32:50;17.15;90.60
65836;SHT30;52595;51.608;7.216;2023-07-02T00:35:16;17.17;90.66
65836;SHT30;52595;51.608;7.216;2023-07-02T00:37:41;17.17;90.69
65836;SHT30;52595;51.608;7.216;2023-07-02T00:40:07;17.19;90.55
65836;SHT30;52595;51.608;7.216;2023-07-02T00:42:32;17.22;90.33
65836;SHT30;52595;51.608;7.216;2023-07-02T00:44:58;17.17;90.56
65836;SHT30;52595;51.608;7.216;2023-07-02T00:47:28;17.18;90.40
65836;SHT30;52595;51.608;7.216;2023-07-02T00:49:54;17.19;90.58
65836;SHT30;52595;51.608;7.216;2023-07-02T00:52:20;17.17;90.58
65836;SHT30;52595;51.608;7.216;2023-07-02T00:54:46;17.17;90.51
65836;SHT30;52595;51.608;7.216;2023-07-02T00:57:11;17.11;90.47
65836;SHT30;52595;51.608;7.216;2023-07-02T00:59:37;17.11;90.68
65836;SHT30;52595;51.608;7.216;2023-07-02T01:02:04;17.11;90.44
65836;SHT30;52595;51.608;7.216;2023-07-02T01:04:31;17.07;90.26
65836;SHT30;52595;51.608;7.216;2023-07-02T01:06:56;17.05;90.20
65836;SHT30;52595;51.608;7.216;2023-07-02T01:09:23;17.05;90.10
65836;SHT30;52595;51.608;7.216;2023-07-02T01:11:54;17.00;89.84
65836;SHT30;52595;51.608;7.216;2023-07-02T01:14:36;16.92;90.17
65836;SHT30;52595;51.608;7.216;2023-07-02T01:17:03;16.78;90.61
65836;SHT30;52595;51.608;7.216;2023-07-02T01:21:59;16.78;90.49
65836;SHT30;52595;51.608;7.216;2023-07-02T01:24:26;16.75;90.45
65836;SHT30;52595;51.608;7.216;2023-07-02T01:26:51;16.80;89.88
65836;SHT30;52595;51.608;7.216;2023-07-02T01:29:18;16.77;89.99
65836;SHT30;52595;51.608;7.216;2023-07-02T01:31:44;16.75;89.84
65836;SHT30;52595;51.608;7.216;2023-07-02T01:34:10;16.77;89.53
65836;SHT30;52595;51.608;7.216;2023-07-02T01:36:37;16.78;89.45
65836;SHT30;52595;51.608;7.216;2023-07-02T01:39:03;16.85;88.91
65836;SHT30;52595;51.608;7.216;2023-07-02T01:41:28;16.92;88.57
65836;SHT30;52595;51.608;7.216;2023-07-02T01:43:54;16.95;88.68
65836;SHT30;52595;51.608;7.216;2023-07-02T01:46:20;16.94;88.68
65836;SHT30;52595;51.608;7.216;2023-07-02T01:48:45;16.97;88.43
65836;SHT30;52595;51.608;7.216;2023-07-02T01:51:10;16.92;88.72
65836;SHT30;52595;51.608;7.216;2023-07-02T01:53:36;16.88;88.88
65836;SHT30;52595;51.608;7.216;2023-07-02T01:56:01;16.85;88.72
65836;SHT30;52595;51.608;7.216;2023-07-02T01:58:27;16.83;88.91
65836;SHT30;52595;51.608;7.216;2023-07-02T02:00:52;16.83;88.83
65836;SHT30;52595;51.608;7.216;2023-07-02T02:03:17;16.80;88.76
65836;SHT30;52595;51.608;7.216;2023-07-02T02:05:43;16.80;88.64
65836;SHT30;52595;51.608;7.216;2023-07-02T02:08:08;16.78;88.75
65836;SHT30;52595;51.608;7.216;2023-07-02T02:10:34;16.77;88.66
65836;SHT30;52595;51.608;7.216;2023-07-02T02:12:59;16.74;88.74
65836;SHT30;52595;51.608;7.216;2023-07-02T02:15:25;16.75;88.67
65836;SHT30;52595;51.608;7.216;2023-07-02T02:17:50;16.80;88.20
65836;SHT30;52595;51.608;7.216;2023-07-02T02:20:16;16.77;88.45
65836;SHT30;52595;51.608;7.216;2023-07-02T02:22:41;16.74;88.82
65836;SHT30;52595;51.608;7.216;2023-07-02T02:25:07;16.74;88.73
65836;SHT30;52595;51.608;7.216;2023-07-02T02:27:32;16.74;88.62
65836;SHT30;52595;51.608;7.216;2023-07-02T02:29:58;16.80;87.95
65836;SHT30;52595;51.608;7.216;2023-07-02T02:32:24;16.78;88.34
65836;SHT30;52595;51.608;7.216;2023-07-02T02:34:49;16.74;88.33
65836;SHT30;52595;51.608;7.216;2023-07-02T02:37:15;16.74;88.31
65836;SHT30;52595;51.608;7.216;2023-07-02T02:39:40;16.77;88.05
65836;SHT30;52595;51.608;7.216;2023-07-02T02:42:05;16.75;88.04
65836;SHT30;52595;51.608;7.216;2023-07-02T02:44:31;16.73;87.82
65836;SHT30;52595;51.608;7.216;2023-07-02T02:46:57;16.75;87.65
65836;SHT30;52595;51.608;7.216;2023-07-02T02:49:23;16.71;88.05
65836;SHT30;52595;51.608;7.216;2023-07-02T02:51:48;16.71;88.01
65836;SHT30;52595;51.608;7.216;2023-07-02T02:54:14;16.71;87.39
65836;SHT30;52595;51.608;7.216;2023-07-02T02:56:39;16.73;87.34
65836;SHT30;52595;51.608;7.216;2023-07-02T02:59:04;16.71;87.41
65836;SHT30;52595;51.608;7.216;2023-07-02T03:01:30;16.71;87.33
65836;SHT30;52595;51.608;7.216;2023-07-02T03:03:58;16.73;86.93
65836;SHT30;52595;51.608;7.216;2023-07-02T03:06:23;16.71;86.85
65836;SHT30;52595;51.608;7.216;2023-07-02T03:08:49;16.73;86.54
65836;SHT30;52595;51.608;7.216;2023-07-02T03:11:14;16.73;86.48
65836;SHT30;52595;51.608;7.216;2023-07-02T03:13:39;16.70;86.64
65836;SHT30;52595;51.608;7.216;2023-07-02T03:16:05;16.73;86.43
65836;SHT30;52595;51.608;7.216;2023-07-02T03:18:31;16.70;86.26
65836;SHT30;52595;51.608;7.216;2023-07-02T03:20:56;16.67;86.42
65836;SHT30;52595;51.608;7.216;2023-07-02T03:23:22;16.65;86.47
65836;SHT30;52595;51.608;7.216;2023-07-02T03:25:47;16.64;86.15
65836;SHT30;52595;51.608;7.216;2023-07-02T03:28:12;16.64;86.18
65836;SHT30;52595;51.608;7.216;2023-07-02T03:30:38;16.63;85.90
65836;SHT30;52595;51.608;7.216;2023-07-02T03:33:03;16.61;85.96
65836;SHT30;52595;51.608;7.216;2023-07-02T03:35:29;16.59;85.89
65836;SHT30;52595;51.608;7.216;2023-07-02T03:37:54;16.56;86.14
65836;SHT30;52595;51.608;7.216;2023-07-02T03:40:19;16.57;86.03
65836;SHT30;52595;51.608;7.216;2023-07-02T03:42:45;16.53;86.16
65836;SHT30;52595;51.608;7.216;2023-07-02T03:45:10;16.53;84.05
65836;SHT30;52595;51.608;7.216;2023-07-02T03:47:36;16.52;82.92
65836;SHT30;52595;51.608;7.216;2023-07-02T03:50:01;16.52;83.43
65836;SHT30;52595;51.608;7.216;2023-07-02T03:52:27;16.52;85.13
65836;SHT30;52595;51.608;7.216;2023-07-02T03:54:52;16.39;85.67
65836;SHT30;52595;51.608;7.216;2023-07-02T03:57:17;16.34;85.87
65836;SHT30;52595;51.608;7.216;2023-07-02T03:59:43;16.36;85.94
65836;SHT30;52595;51.608;7.216;2023-07-02T04:02:08;16.39;85.40
65836;SHT30;52595;51.608;7.216;2023-07-02T04:04:34;16.40;85.07
65836;SHT30;52595;51.608;7.216;2023-07-02T04:06:59;16.40;84.68
65836;SHT30;52595;51.608;7.216;2023-07-02T04:09:25;16.40;84.86
65836;SHT30;52595;51.608;7.216;2023-07-02T04:11:50;16.43;84.68
65836;SHT30;52595;51.608;7.216;2023-07-02T04:14:15;16.42;83.46
65836;SHT30;52595;51.608;7.216;2023-07-02T04:16:43;16.44;83.29
65836;SHT30;52595;51.608;7.216;2023-07-02T04:19:10;16.44;82.69
65836;SHT30;52595;51.608;7.216;2023-07-02T04:21:35;16.43;82.02
65836;SHT30;52595;51.608;7.216;2023-07-02T04:24:01;16.47;81.72
65836;SHT30;52595;51.608;7.216;2023-07-02T04:26:26;16.47;80.84
65836;SHT30;52595;51.608;7.216;2023-07-02T04:28:55;16.50;79.99
65836;SHT30;52595;51.608;7.216;2023-07-02T04:31:21;16.49;80.40
65836;SHT30;52595;51.608;7.216;2023-07-02T04:33:46;16.53;80.03
65836;SHT30;52595;51.608;7.216;2023-07-02T04:36:12;16.57;79.37
65836;SHT30;52595;51.608;7.216;2023-07-02T04:38:38;16.54;79.40
65836;SHT30;52595;51.608;7.216;2023-07-02T04:41:04;16.56;79.05
65836;SHT30;52595;51.608;7.216;2023-07-02T04:43:31;16.57;78.84
65836;SHT30;52595;51.608;7.216;2023-07-02T04:45:57;16.56;78.68
65836;SHT30;52595;51.608;7.216;2023-07-02T04:48:22;16.64;78.46
65836;SHT30;52595;51.608;7.216;2023-07-02T04:50:48;16.68;78.42
65836;SHT30;52595;51.608;7.216;2023-07-02T04:53:13;16.70;78.65
65836;SHT30;52595;51.608;7.216;2023-07-02T04:55:38;16.70;78.98
65836;SHT30;52595;51.608;7.216;2023-07-02T04:58:04;16.74;79.91
65836;SHT30;52595;51.608;7.216;2023-07-02T05:00:29;16.78;80.25
65836;SHT30;52595;51.608;7.216;2023-07-02T05:02:55;16.89;80.72
65836;SHT30;52595;51.608;7.216;2023-07-02T05:05:20;16.94;81.75
65836;SHT30;52595;51.608;7.216;2023-07-02T05:07:45;16.92;82.38
65836;SHT30;52595;51.608;7.216;2023-07-02T05:10:11;16.94;83.07
65836;SHT30;52595;51.608;7.216;2023-07-02T05:12:36;17.05;83.72
65836;SHT30;52595;51.608;7.216;2023-07-02T05:15:02;16.94;84.94
65836;SHT30;52595;51.608;7.216;2023-07-02T05:17:27;16.89;85.18
65836;SHT30;52595;51.608;7.216;2023-07-02T05:19:53;16.94;85.35
65836;SHT30;52595;51.608;7.216;2023-07-02T05:22:19;16.89;85.64
65836;SHT30;52595;51.608;7.216;2023-07-02T05:24:44;16.95;85.72
65836;SHT30;52595;51.608;7.216;2023-07-02T05:27:11;16.84;85.83
65836;SHT30;52595;51.608;7.216;2023-07-02T05:29:36;16.84;86.04
65836;SHT30;52595;51.608;7.216;2023-07-02T05:32:02;16.84;86.15
65836;SHT30;52595;51.608;7.216;2023-07-02T05:34:27;16.85;85.90
65836;SHT30;52595;51.608;7.216;2023-07-02T05:36:53;16.84;85.96
65836;SHT30;52595;51.608;7.216;2023-07-02T05:39:18;16.92;85.62
65836;SHT30;52595;51.608;7.216;2023-07-02T05:41:44;16.88;85.81
65836;SHT30;52595;51.608;7.216;2023-07-02T05:44:09;16.97;85.57
65836;SHT30;52595;51.608;7.216;2023-07-02T05:46:34;17.08;85.38
65836;SHT30;52595;51.608;7.216;2023-07-02T05:49:00;17.05;85.04
65836;SHT30;52595;51.608;7.216;2023-07-02T05:51:25;17.11;84.27
65836;SHT30;52595;51.608;7.216;2023-07-02T05:53:51;17.10;84.04
65836;SHT30;52595;51.608;7.216;2023-07-02T05:56:17;17.10;83.65
65836;SHT30;52595;51.608;7.216;2023-07-02T05:58:44;17.11;83.52
65836;SHT30;52595;51.608;7.216;2023-07-02T06:01:10;17.10;83.77
65836;SHT30;52595;51.608;7.216;2023-07-02T06:03:35;16.94;81.74
65836;SHT30;52595;51.608;7.216;2023-07-02T06:06:01;16.94;82.00
65836;SHT30;52595;51.608;7.216;2023-07-02T06:08:26;16.95;81.69
65836;SHT30;52595;51.608;7.216;2023-07-02T06:10:52;16.92;81.01
65836;SHT30;52595;51.608;7.216;2023-07-02T06:13:17;16.95;80.76
65836;SHT30;52595;51.608;7.216;2023-07-02T06:15:43;16.94;80.88
65836;SHT30;52595;51.608;7.216;2023-07-02T06:18:08;16.91;79.63
65836;SHT30;52595;51.608;7.216;2023-07-02T06:20:34;16.95;79.83
65836;SHT30;52595;51.608;7.216;2023-07-02T06:22:59;16.95;79.65
65836;SHT30;52595;51.608;7.216;2023-07-02T06:25:25;17.08;78.89
65836;SHT30;52595;51.608;7.216;2023-07-02T06:27:51;17.05;76.79
65836;SHT30;52595;51.608;7.216;2023-07-02T06:30:19;17.15;77.31
65836;SHT30;52595;51.608;7.216;2023-07-02T06:32:44;17.31;76.58
65836;SHT30;52595;51.608;7.216;2023-07-02T06:35:09;17.55;76.54
65836;SHT30;52595;51.608;7.216;2023-07-02T06:37:35;17.69;73.63
65836;SHT30;52595;51.608;7.216;2023-07-02T06:40:01;17.90;72.14
65836;SHT30;52595;51.608;7.216;2023-07-02T06:42:26;17.83;69.79
65836;SHT30;52595;51.608;7.216;2023-07-02T06:44:51;17.82;69.54
65836;SHT30;52595;51.608;7.216;2023-07-02T06:47:17;17.66;69.33
65836;SHT30;52595;51.608;7.216;2023-07-02T06:49:43;17.78;70.64
65836;SHT30;52595;51.608;7.216;2023-07-02T06:52:08;17.94;70.22
65836;SHT30;52595;51.608;7.216;2023-07-02T06:54:33;17.94;70.05
65836;SHT30;52595;51.608;7.216;2023-07-02T06:56:59;18.09;69.59
65836;SHT30;52595;51.608;7.216;2023-07-02T06:59:25;18.48;69.37
65836;SHT30;52595;51.608;7.216;2023-07-02T07:01:50;18.48;68.28
65836;SHT30;52595;51.608;7.216;2023-07-02T07:04:16;18.40;66.63
65836;SHT30;52595;51.608;7.216;2023-07-02T07:06:42;18.12;66.86
65836;SHT30;52595;51.608;7.216;2023-07-02T07:09:08;18.07;66.33
65836;SHT30;52595;51.608;7.216;2023-07-02T07:11:33;17.94;66.97
65836;SHT30;52595;51.608;7.216;2023-07-02T07:13:59;18.10;67.57
65836;SHT30;52595;51.608;7.216;2023-07-02T07:16:24;18.14;67.42
65836;SHT30;52595;51.608;7.216;2023-07-02T07:18:50;18.14;66.79
65836;SHT30;52595;51.608;7.216;2023-07-02T07:21:15;18.31;66.96
65836;SHT30;52595;51.608;7.216;2023-07-02T07:23:40;18.44;66.43
65836;SHT30;52595;51.608;7.216;2023-07-02T07:26:06;18.41;65.06
65836;SHT30;52595;51.608;7.216;2023-07-02T07:28:32;18.44;64.50
65836;SHT30;52595;51.608;7.216;2023-07-02T07:30:57;18.51;63.38
65836;SHT30;52595;51.608;7.216;2023-07-02T07:33:23;18.48;63.07
65836;SHT30;52595;51.608;7.216;2023-07-02T07:35:48;18.48;62.95
65836;SHT30;52595;51.608;7.216;2023-07-02T07:38:14;18.63;63.93
65836;SHT30;52595;51.608;7.216;2023-07-02T07:40:43;18.78;63.99
65836;SHT30;52595;51.608;7.216;2023-07-02T07:43:09;18.74;63.83
65836;SHT30;52595;51.608;7.216;2023-07-02T07:45:34;18.99;63.57
65836;SHT30;52595;51.608;7.216;2023-07-02T07:48:01;18.87;62.07
65836;SHT30;52595;51.608;7.216;2023-07-02T07:50:26;18.94;61.67
65836;SHT30;52595;51.608;7.216;2023-07-02T07:52:52;18.71;62.41
65836;SHT30;52595;51.608;7.216;2023-07-02T07:55:17;19.02;62.47
65836;SHT30;52595;51.608;7.216;2023-07-02T07:57:42;19.04;62.22
65836;SHT30;52595;51.608;7.216;2023-07-02T08:00:08;19.25;61.37
65836;SHT30;52595;51.608;7.216;2023-07-02T08:02:37;19.26;59.96
65836;SHT30;52595;51.608;7.216;2023-07-02T08:05:03;19.01;60.58
65836;SHT30;52595;51.608;7.216;2023-07-02T08:07:30;19.11;61.31
65836;SHT30;52595;51.608;7.216;2023-07-02T08:09:55;19.20;61.43
65836;SHT30;52595;51.608;7.216;2023-07-02T08:12:21;19.12;60.35
65836;SHT30;52595;51.608;7.216;2023-07-02T08:14:46;19.40;60.89
65836;SHT30;52595;51.608;7.216;2023-07-02T08:17:12;19.33;60.42
65836;SHT30;52595;51.608;7.216;2023-07-02T08:19:37;19.20;60.21
65836;SHT30;52595;51.608;7.216;2023-07-02T08:22:03;19.22;61.35
65836;SHT30;52595;51.608;7.216;2023-07-02T08:24:29;19.08;60.71
65836;SHT30;52595;51.608;7.216;2023-07-02T08:26:56;18.92;61.32
65836;SHT30;52595;51.608;7.216;2023-07-02T08:29:21;18.89;62.71
65836;SHT30;52595;51.608;7.216;2023-07-02T08:31:46;18.78;63.14
65836;SHT30;52595;51.608;7.216;2023-07-02T08:34:12;18.89;63.14
65836;SHT30;52595;51.608;7.216;2023-07-02T08:36:37;19.23;60.79
65836;SHT30;52595;51.608;7.216;2023-07-02T08:39:03;19.69;60.41
65836;SHT30;52595;51.608;7.216;2023-07-02T08:41:29;19.66;60.04
65836;SHT30;52595;51.608;7.216;2023-07-02T08:43:55;19.53;60.36
65836;SHT30;52595;51.608;7.216;2023-07-02T08:46:21;19.25;59.60
65836;SHT30;52595;51.608;7.216;2023-07-02T08:48:47;19.26;60.21
65836;SHT30;52595;51.608;7.216;2023-07-02T08:51:13;19.02;60.15
65836;SHT30;52595;51.608;7.216;2023-07-02T08:53:38;19.08;60.42
65836;SHT30;52595;51.608;7.216;2023-07-02T08:56:04;19.19;60.71
65836;SHT30;52595;51.608;7.216;2023-07-02T08:58:29;19.06;60.24
65836;SHT30;52595;51.608;7.216;2023-07-02T09:01:14;19.11;59.92
65836;SHT30;52595;51.608;7.216;2023-07-02T09:03:40;18.85;59.18
65836;SHT30;52595;51.608;7.216;2023-07-02T09:06:08;18.75;60.07
65836;SHT30;52595;51.608;7.216;2023-07-02T09:08:34;18.89;58.74
65836;SHT30;52595;51.608;7.216;2023-07-02T09:13:50;19.01;58.57
65836;SHT30;52595;51.608;7.216;2023-07-02T09:16:27;19.28;57.73
65836;SHT30;52595;51.608;7.216;2023-07-02T09:19:03;19.38;56.44
65836;SHT30;52595;51.608;7.216;2023-07-02T09:21:45;19.42;56.48
65836;SHT30;52595;51.608;7.216;2023-07-02T09:24:15;19.15;56.39
65836;SHT30;52595;51.608;7.216;2023-07-02T09:26:48;19.33;56.20
65836;SHT30;52595;51.608;7.216;2023-07-02T09:31:47;19.45;54.15
65836;SHT30;52595;51.608;7.216;2023-07-02T09:34:13;19.72;53.82
65836;SHT30;52595;51.608;7.216;2023-07-02T09:36:39;19.56;54.84
65836;SHT30;52595;51.608;7.216;2023-07-02T09:39:14;19.80;54.52
65836;SHT30;52595;51.608;7.216;2023-07-02T09:41:42;19.67;55.13
65836;SHT30;52595;51.608;7.216;2023-07-02T09:44:09;19.42;55.52
65836;SHT30;52595;51.608;7.216;2023-07-02T09:46:41;19.30;56.35
65836;SHT30;52595;51.608;7.216;2023-07-02T09:49:12;19.72;55.96
65836;SHT30;52595;51.608;7.216;2023-07-02T09:51:39;19.86;55.36
65836;SHT30;52595;51.608;7.216;2023-07-02T09:54:05;19.74;54.36
65836;SHT30;52595;51.608;7.216;2023-07-02T09:56:31;19.67;55.38
65836;SHT30;52595;51.608;7.216;2023-07-02T09:58:56;20.21;55.55
65836;SHT30;52595;51.608;7.216;2023-07-02T10:01:22;20.04;55.60
65836;SHT30;52595;51.608;7.216;2023-07-02T10:03:47;20.31;55.67
65836;SHT30;52595;51.608;7.216;2023-07-02T10:06:13;20.27;55.25
65836;SHT30;52595;51.608;7.216;2023-07-02T10:08:38;20.71;52.28
65836;SHT30;52595;51.608;7.216;2023-07-02T10:13:34;20.13;53.96
65836;SHT30;52595;51.608;7.216;2023-07-02T10:16:03;19.96;55.30
65836;SHT30;52595;51.608;7.216;2023-07-02T10:18:28;19.97;52.75
65836;SHT30;52595;51.608;7.216;2023-07-02T10:20:54;19.86;52.59
65836;SHT30;52595;51.608;7.216;2023-07-02T10:23:19;20.07;53.30
65836;SHT30;52595;51.608;7.216;2023-07-02T10:25:45;20.43;53.14
65836;SHT30;52595;51.608;7.216;2023-07-02T10:28:20;20.48;52.73
65836;SHT30;52595;51.608;7.216;2023-07-02T10:30:52;20.37;53.03
65836;SHT30;52595;51.608;7.216;2023-07-02T10:33:19;20.30;53.53
65836;SHT30;52595;51.608;7.216;2023-07-02T10:35:48;19.90;54.47
65836;SHT30;52595;51.608;7.216;2023-07-02T10:38:18;20.14;53.46
65836;SHT30;52595;51.608;7.216;2023-07-02T10:40:44;20.63;53.15
65836;SHT30;52595;51.608;7.216;2023-07-02T10:43:09;20.41;52.86
65836;SHT30;52595;51.608;7.216;2023-07-02T10:45:35;20.16;53.25
65836;SHT30;52595;51.608;7.216;2023-07-02T10:48:02;20.54;52.99
65836;SHT30;52595;51.608;7.216;2023-07-02T10:50:30;20.47;53.22
65836;SHT30;52595;51.608;7.216;2023-07-02T10:52:56;20.44;53.34
65836;SHT30;52595;51.608;7.216;2023-07-02T10:55:24;20.78;52.56
65836;SHT30;52595;51.608;7.216;2023-07-02T10:57:52;20.40;53.04
65836;SHT30;52595;51.608;7.216;2023-07-02T11:00:27;20.63;53.00
65836;SHT30;52595;51.608;7.216;2023-07-02T11:02:52;21.25;51.80
65836;SHT30;52595;51.608;7.216;2023-07-02T11:05:18;20.78;51.73
65836;SHT30;52595;51.608;7.216;2023-07-02T11:07:43;21.13;51.76
65836;SHT30;52595;51.608;7.216;2023-07-02T11:10:10;20.71;52.21
65836;SHT30;52595;51.608;7.216;2023-07-02T11:12:36;20.98;52.19
65836;SHT30;52595;51.608;7.216;2023-07-02T11:15:16;21.76;50.55
65836;SHT30;52595;51.608;7.216;2023-07-02T11:17:42;22.61;48.55
65836;SHT30;52595;51.608;7.216;2023-07-02T11:20:09;22.20;49.40
65836;SHT30;52595;51.608;7.216;2023-07-02T11:22:36;21.60;50.62
65836;SHT30;52595;51.608;7.216;2023-07-02T11:25:13;22.00;49.40
65836;SHT30;52595;51.608;7.216;2023-07-02T11:27:40;21.47;49.05
65836;SHT30;52595;51.608;7.216;2023-07-02T11:30:06;21.60;49.54
65836;SHT30;52595;51.608;7.216;2023-07-02T11:32:46;21.94;50.02
65836;SHT30;52595;51.608;7.216;2023-07-02T11:35:13;23.57;47.45
65836;SHT30;52595;51.608;7.216;2023-07-02T11:37:39;22.38;47.98
65836;SHT30;52595;51.608;7.216;2023-07-02T11:40:04;21.71;49.89
65836;SHT30;52595;51.608;7.216;2023-07-02T11:42:30;21.61;49.64
65836;SHT30;52595;51.608;7.216;2023-07-02T11:44:56;21.60;49.67
65836;SHT30;52595;51.608;7.216;2023-07-02T11:47:22;22.79;49.33
65836;SHT30;52595;51.608;7.216;2023-07-02T11:49:47;21.90;49.05
65836;SHT30;52595;51.608;7.216;2023-07-02T11:52:13;22.88;47.51
65836;SHT30;52595;51.608;7.216;2023-07-02T11:54:40;22.79;48.44
65836;SHT30;52595;51.608;7.216;2023-07-02T11:57:05;22.82;47.69
65836;SHT30;52595;51.608;7.216;2023-07-02T11:59:31;23.34;46.68
65836;SHT30;52595;51.608;7.216;2023-07-02T12:01:56;24.04;44.55
65836;SHT30;52595;51.608;7.216;2023-07-02T12:04:22;23.39;45.04
65836;SHT30;52595;51.608;7.216;2023-07-02T12:06:47;23.31;45.14
65836;SHT30;52595;51.608;7.216;2023-07-02T12:09:12;23.05;46.39
65836;SHT30;52595;51.608;7.216;2023-07-02T12:11:38;23.20;44.61
65836;SHT30;52595;51.608;7.216;2023-07-02T12:14:04;24.21;45.25
65836;SHT30;52595;51.608;7.216;2023-07-02T12:16:29;25.12;43.59
65836;SHT30;52595;51.608;7.216;2023-07-02T12:18:54;24.31;44.25
65836;SHT30;52595;51.608;7.216;2023-07-02T12:21:20;23.34;46.05
65836;SHT30;52595;51.608;7.216;2023-07-02T12:23:45;23.20;45.92
65836;SHT30;52595;51.608;7.216;2023-07-02T12:26:11;22.28;48.01
65836;SHT30;52595;51.608;7.216;2023-07-02T12:28:36;21.71;49.98
65836;SHT30;52595;51.608;7.216;2023-07-02T12:31:01;22.13;49.28
65836;SHT30;52595;51.608;7.216;2023-07-02T12:33:28;22.44;48.80
65836;SHT30;52595;51.608;7.216;2023-07-02T12:35:53;22.73;48.27
65836;SHT30;52595;51.608;7.216;2023-07-02T12:38:18;23.31;46.66
65836;SHT30;52595;51.608;7.216;2023-07-02T12:40:44;23.22;46.82
65836;SHT30;52595;51.608;7.216;2023-07-02T12:43:09;24.29;45.39
65836;SHT30;52595;51.608;7.216;2023-07-02T12:45:34;23.51;46.58
65836;SHT30;52595;51.608;7.216;2023-07-02T12:48:00;22.84;48.50
65836;SHT30;52595;51.608;7.216;2023-07-02T12:50:25;21.81;50.36
65836;SHT30;52595;51.608;7.216;2023-07-02T12:52:51;21.63;50.78
65836;SHT30;52595;51.608;7.216;2023-07-02T12:55:16;23.00;49.24
65836;SHT30;52595;51.608;7.216;2023-07-02T12:57:41;23.80;46.88
65836;SHT30;52595;51.608;7.216;2023-07-02T13:00:07;23.49;47.88
65836;SHT30;52595;51.608;7.216;2023-07-02T13:02:34;22.99;47.85
65836;SHT30;52595;51.608;7.216;2023-07-02T13:04:59;22.11;50.25
65836;SHT30;52595;51.608;7.216;2023-07-02T13:07:25;22.27;50.51
65836;SHT30;52595;51.608;7.216;2023-07-02T13:09:51;22.15;50.40
65836;SHT30;52595;51.608;7.216;2023-07-02T13:12:16;23.57;48.36
65836;SHT30;52595;51.608;7.216;2023-07-02T13:14:42;23.49;47.42
65836;SHT30;52595;51.608;7.216;2023-07-02T13:17:07;23.26;47.84
65836;SHT30;52595;51.608;7.216;2023-07-02T13:19:33;23.51;48.73
65836;SHT30;52595;51.608;7.216;2023-07-02T13:21:59;22.78;49.01
65836;SHT30;52595;51.608;7.216;2023-07-02T13:24:24;22.11;50.58
65836;SHT30;52595;51.608;7.216;2023-07-02T13:26:50;22.94;49.55
65836;SHT30;52595;51.608;7.216;2023-07-02T13:29:16;23.93;48.15
65836;SHT30;52595;51.608;7.216;2023-07-02T13:31:41;23.90;47.01
65836;SHT30;52595;51.608;7.216;2023-07-02T13:34:07;23.26;48.90
65836;SHT30;52595;51.608;7.216;2023-07-02T13:36:32;22.95;49.40
65836;SHT30;52595;51.608;7.216;2023-07-02T13:38:58;22.58;50.09
65836;SHT30;52595;51.608;7.216;2023-07-02T13:41:23;22.98;49.42
65836;SHT30;52595;51.608;7.216;2023-07-02T13:43:49;23.61;48.00
65836;SHT30;52595;51.608;7.216;2023-07-02T13:46:14;23.94;48.09
65836;SHT30;52595;51.608;7.216;2023-07-02T13:48:40;24.36;47.44
65836;SHT30;52595;51.608;7.216;2023-07-02T13:51:05;24.59;46.51
65836;SHT30;52595;51.608;7.216;2023-07-02T13:53:33;24.96;46.51
65836;SHT30;52595;51.608;7.216;2023-07-02T13:55:58;24.10;48.68
65836;SHT30;52595;51.608;7.216;2023-07-02T13:58:24;22.92;50.78
65836;SHT30;52595;51.608;7.216;2023-07-02T14:00:49;22.91;50.91
65836;SHT30;52595;51.608;7.216;2023-07-02T14:03:14;22.78;50.80
65836;SHT30;52595;51.608;7.216;2023-07-02T14:05:40;22.73;50.36
65836;SHT30;52595;51.608;7.216;2023-07-02T14:08:06;22.91;51.36
65836;SHT30;52595;51.608;7.216;2023-07-02T14:10:31;22.86;50.54
65836;SHT30;52595;51.608;7.216;2023-07-02T14:12:57;23.74;49.09
65836;SHT30;52595;51.608;7.216;2023-07-02T14:15:24;23.57;48.34
65836;SHT30;52595;51.608;7.216;2023-07-02T14:17:49;23.64;48.32
65836;SHT30;52595;51.608;7.216;2023-07-02T14:20:15;23.59;49.56
65836;SHT30;52595;51.608;7.216;2023-07-02T14:22:40;23.69;49.29
65836;SHT30;52595;51.608;7.216;2023-07-02T14:25:06;24.36;47.84
65836;SHT30;52595;51.608;7.216;2023-07-02T14:27:31;23.05;49.88
65836;SHT30;52595;51.608;7.216;2023-07-02T14:29:57;23.78;49.65
65836;SHT30;52595;51.608;7.216;2023-07-02T14:32:22;23.69;49.54
65836;SHT30;52595;51.608;7.216;2023-07-02T14:34:47;24.01;48.73
65836;SHT30;52595;51.608;7.216;2023-07-02T14:37:13;23.10;50.38
65836;SHT30;52595;51.608;7.216;2023-07-02T14:39:38;24.11;48.96
65836;SHT30;52595;51.608;7.216;2023-07-02T14:42:04;24.62;47.40
65836;SHT30;52595;51.608;7.216;2023-07-02T14:44:32;23.71;48.93
65836;SHT30;52595;51.608;7.216;2023-07-02T14:46:57;23.26;49.54
65836;SHT30;52595;51.608;7.216;2023-07-02T14:49:22;23.49;49.98
65836;SHT30;52595;51.608;7.216;2023-07-02T14:51:48;23.29;50.01
65836;SHT30;52595;51.608;7.216;2023-07-02T14:54:13;24.10;50.44
65836;SHT30;52595;51.608;7.216;2023-07-02T14:56:38;25.20;47.47
65836;SHT30;52595;51.608;7.216;2023-07-02T14:59:05;24.21;48.94
65836;SHT30;52595;51.608;7.216;2023-07-02T15:01:32;23.90;49.72
65836;SHT30;52595;51.608;7.216;2023-07-02T15:03:57;23.63;50.01
65836;SHT30;52595;51.608;7.216;2023-07-02T15:06:23;22.96;51.82
65836;SHT30;52595;51.608;7.216;2023-07-02T15:08:48;23.97;49.43
65836;SHT30;52595;51.608;7.216;2023-07-02T15:11:15;23.54;49.60
65836;SHT30;52595;51.608;7.216;2023-07-02T15:13:41;22.76;51.65
65836;SHT30;52595;51.608;7.216;2023-07-02T15:16:08;22.47;52.23
65836;SHT30;52595;51.608;7.216;2023-07-02T15:18:34;22.35;52.42
65836;SHT30;52595;51.608;7.216;2023-07-02T15:21:00;23.56;50.54
65836;SHT30;52595;51.608;7.216;2023-07-02T15:23:26;23.96;49.51
65836;SHT30;52595;51.608;7.216;2023-07-02T15:25:53;24.32;48.96
65836;SHT30;52595;51.608;7.216;2023-07-02T15:28:19;24.73;47.86
65836;SHT30;52595;51.608;7.216;2023-07-02T15:30:46;24.11;48.17
65836;SHT30;52595;51.608;7.216;2023-07-02T15:33:13;24.38;48.50